This is the latest recevied weather packets stored in our database for station/object KB2AHZ. If no packets are shown the sender has not sent any weather packets the latest 10 day(s).
| Time | Temp. | Humidity | Pressure | Rain* | Wind** | Luminosity | Snow |
|---|---|---|---|---|---|---|---|
| 1777152504 | 21.67° C | 71% | 1007.7 hPa | 0 mm | - | 29 W/m² | - |
| 1777152200 | 22.22° C | 68% | 1007.7 hPa | 0 mm | - | 29 W/m² | - |
| 1777151895 | 23.33° C | 63% | 1008.1 hPa | 0 mm | - | 37 W/m² | - |
| 1777151592 | 27.22° C | 49% | 1007.4 hPa | 0 mm | - | 36 W/m² | - |
| 1777151289 | 28.89° C | 44% | 1007.2 hPa | 0 mm | - | 91 W/m² | - |
| 1777150983 | 28.89° C | 42% | 1006.9 hPa | 0 mm | - | 105 W/m² | - |
| 1777150677 | 28.89° C | 42% | 1006.6 hPa | 0 mm | - | 130 W/m² | - |
| 1777150374 | 29.44° C | 42% | 1006.6 hPa | 0 mm | - | 173 W/m² | - |
| 1777150071 | 29.44° C | 40% | 1006.5 hPa | 0 mm | - | 214 W/m² | - |
| 1777149766 | 30° C | 39% | 1006.5 hPa | 0 mm | - | 252 W/m² | - |
| 1777149464 | 30.56° C | 40% | 1006.5 hPa | 0 mm | - | 372 W/m² | - |
| 1777149160 | 30.56° C | 39% | 1006.5 hPa | 0 mm | - | 471 W/m² | - |
| 1777148859 | 30.56° C | 39% | 1006.5 hPa | 0 mm | - | 508 W/m² | - |
| 1777148557 | 31.11° C | 39% | 1006.5 hPa | 0 mm | - | 545 W/m² | - |
| 1777148252 | 31.11° C | 41% | 1006.6 hPa | 0 mm | - | 584 W/m² | - |
| 1777147949 | 30.56° C | 39% | 1006.6 hPa | 0 mm | - | 633 W/m² | - |
| 1777147645 | 30° C | 39% | 1006.3 hPa | 0 mm | - | 521 W/m² | - |
| 1777147340 | 30° C | 40% | 1006.3 hPa | 0 mm | - | 482 W/m² | - |
| 1777147036 | 30.56° C | 42% | 1006.6 hPa | 0 mm | - | 578 W/m² | - |
| 1777146733 | 30° C | 41% | 1006.9 hPa | 0 mm | - | 465 W/m² | - |
| 1777146428 | 30.56° C | 42% | 1006.8 hPa | 0 mm | - | 383 W/m² | - |
| 1777146125 | 30° C | 41% | 1007 hPa | 0 mm | - | 365 W/m² | - |
| 1777145819 | 30° C | 44% | 1006.8 hPa | 0 mm | - | 381 W/m² | - |
| 1777145516 | 30° C | 43% | 1006.9 hPa | 0 mm | - | 720 W/m² | - |
| 1777145210 | 29.44° C | 44% | 1007 hPa | 0 mm | - | 306 W/m² | - |
* Rain latest hour (hover to see other rain measurements)
** Current wind speed in m/s (hover to see current wind gust speed)